Lake, Michigan
Current Conditions -  °F | °C
As of 1:35 AM on Wednesday 26 Nov 2014 (Local Time) from KMOP Reporting Station
Overcast Overcast  
Wind Chill: 29°   Ceiling: 2300
Heat Index: 29°   Visibility: 10mi
Dew Point: 22°   Wind: 0mph
Humidity: 73%   Direction: NA
Pressure: 30.17"   Gusts: NA
Location:  43.85°N, 85.01°W
Report Text: KMOP 260635Z AUTO 00000KT 10SM OVC023 M01/M06 A3017 RMK AO2 T10151057
Loading
Personal Weather Stations






























Interactive Weather Map New forecast layout! Learn more

10-Day Weather Forecast

Advertisements
Track Severe Weather on mobile